< < Back
Terminal Aerodrome Forecast


Current Version              Previous Versions:   1  2  3  4  5  6  7  8  9  

Terminal Aerodrome Forecast

429
FTUS44 KOHX 202300 AAA
TAFBNA
TAF AMD
KBNA 202333Z 2100/2124 34010G16KT P6SM SCT035 BKN070
      TEMPO 2100/2103 VRB15G25KT 1SM +TSRA BKN025CB
     FM210300 25007KT P6SM SCT040
     FM210500 00000KT P6SM SCT250
      TEMPO 2109/2112 4SM BR
     FM211600 25007KT P6SM SCT050=



Latest METAR

012
SAUS70 KWBC 210600 RRC
MTRBNA
METAR KBNA 210553Z 19004KT 10SM FEW140 BKN180 22/21 A3009 RMK AO2 SLP181
60001 T02220211 10228 20217 403500217 58004


USA.gov is the U.S. government's official web portal to all federal, state and local government web resources and services.